createdAt,value
2024-04-21T00:02:02.757Z,14.60
2024-04-21T00:04:30.195Z,13.80
2024-04-21T00:06:58.592Z,13.90
2024-04-21T00:09:26.045Z,16.92
2024-04-21T00:11:53.461Z,14.82
2024-04-21T00:14:20.860Z,13.48
2024-04-21T00:16:48.298Z,16.30
2024-04-21T00:19:15.581Z,14.25
2024-04-21T00:21:43.129Z,13.60
2024-04-21T00:24:10.545Z,15.02
2024-04-21T00:26:37.951Z,13.43
2024-04-21T00:29:06.893Z,13.18
2024-04-21T00:31:34.214Z,13.40
2024-04-21T00:34:01.621Z,14.68
2024-04-21T00:36:29.029Z,13.75
2024-04-21T00:38:56.551Z,16.52
2024-04-21T00:41:25.258Z,16.33
2024-04-21T00:43:52.904Z,14.75
2024-04-21T00:46:20.989Z,15.90
2024-04-21T00:48:48.974Z,14.43
2024-04-21T00:51:22.101Z,14.80
2024-04-21T00:53:52.332Z,11.63
2024-04-21T00:56:24.031Z,11.63
2024-04-21T00:58:54.168Z,12.90
2024-04-21T01:01:24.912Z,11.93
2024-04-21T01:03:53.611Z,12.07
2024-04-21T01:06:20.987Z,11.73
2024-04-21T01:08:48.606Z,11.50
2024-04-21T01:11:19.875Z,13.68
2024-04-21T01:13:47.252Z,12.90
2024-04-21T01:16:15.320Z,17.30
2024-04-21T01:18:43.116Z,12.97
2024-04-21T01:21:10.572Z,14.32
2024-04-21T01:23:39.337Z,14.27
2024-04-21T01:26:06.597Z,16.43
2024-04-21T01:28:34.003Z,15.80
2024-04-21T01:31:01.635Z,13.95
2024-04-21T01:33:29.100Z,14.05
2024-04-21T01:35:56.594Z,13.60
2024-04-21T01:38:24.119Z,13.07
2024-04-21T01:40:51.359Z,15.50
2024-04-21T01:43:18.794Z,13.27
2024-04-21T01:45:46.300Z,13.43
2024-04-21T01:48:13.867Z,13.13
2024-04-21T01:50:41.282Z,17.20
2024-04-21T01:53:08.618Z,16.63
2024-04-21T01:55:36.055Z,13.45
2024-04-21T01:58:03.748Z,15.68
2024-04-21T02:00:31.227Z,15.25
2024-04-21T02:02:58.559Z,17.70
2024-04-21T02:05:26.714Z,14.30
2024-04-21T02:07:53.940Z,14.45
2024-04-21T02:10:22.396Z,13.85
2024-04-21T02:12:50.303Z,13.88
2024-04-21T02:15:18.010Z,13.27
2024-04-21T02:17:45.575Z,14.15
2024-04-21T02:20:14.645Z,14.57
2024-04-21T02:22:42.112Z,16.33
2024-04-21T02:25:09.433Z,14.07
2024-04-21T02:27:36.800Z,14.63
2024-04-21T02:30:04.088Z,14.50
2024-04-21T02:32:31.660Z,15.93
2024-04-21T02:34:58.877Z,16.65
2024-04-21T02:37:26.405Z,14.85
2024-04-21T02:39:53.752Z,15.18
2024-04-21T02:42:21.128Z,16.27
2024-04-21T02:44:48.569Z,17.80
2024-04-21T02:47:15.923Z,18.10
2024-04-21T02:49:43.299Z,15.70
2024-04-21T02:52:10.705Z,17.83
2024-04-21T02:54:38.028Z,16.95
2024-04-21T02:57:06.222Z,19.42
2024-04-21T02:59:33.581Z,15.98
2024-04-21T03:02:01.069Z,15.73
2024-04-21T03:04:28.626Z,17.95
2024-04-21T03:06:56.024Z,17.60
2024-04-21T03:09:23.538Z,16.58
2024-04-21T03:11:50.929Z,14.25
2024-04-21T03:14:18.843Z,16.67
2024-04-21T03:16:48.077Z,16.65
2024-04-21T03:19:15.506Z,16.40
2024-04-21T03:21:42.965Z,17.50
2024-04-21T03:24:10.214Z,18.38
2024-04-21T03:26:38.384Z,19.33
2024-04-21T03:29:05.935Z,19.27
2024-04-21T03:31:33.293Z,15.60
2024-04-21T03:34:00.681Z,17.60
2024-04-21T03:36:27.955Z,19.52
2024-04-21T03:38:55.468Z,21.00
2024-04-21T03:41:23.103Z,18.42
2024-04-21T03:43:50.783Z,18.25
2024-04-21T03:46:19.830Z,20.10
2024-04-21T03:48:48.922Z,20.23
2024-04-21T03:51:16.303Z,22.10
2024-04-21T03:53:43.637Z,23.23
2024-04-21T03:56:11.127Z,24.42
2024-04-21T03:58:39.354Z,19.35
2024-04-21T04:01:06.768Z,18.65
2024-04-21T04:03:34.206Z,20.23
2024-04-21T04:06:01.757Z,20.92
2024-04-21T04:08:29.325Z,22.00
2024-04-21T04:10:56.634Z,21.52
2024-04-21T04:13:23.933Z,22.92
2024-04-21T04:15:52.413Z,25.30
2024-04-21T04:18:19.915Z,23.27
2024-04-21T04:20:47.718Z,24.65
2024-04-21T04:23:15.082Z,24.33
2024-04-21T04:25:44.329Z,22.50
2024-04-21T04:28:11.789Z,21.33
2024-04-21T04:30:39.152Z,22.42
2024-04-21T04:33:06.488Z,21.05
2024-04-21T04:35:33.826Z,21.77
2024-04-21T04:38:01.333Z,18.25
2024-04-21T04:40:28.554Z,19.05
2024-04-21T04:42:56.035Z,19.00
2024-04-21T04:45:23.671Z,17.63
2024-04-21T04:47:51.008Z,25.92
2024-04-21T04:50:18.535Z,17.58
2024-04-21T04:52:45.845Z,20.08
2024-04-21T04:55:14.186Z,18.05
2024-04-21T04:57:41.596Z,16.02
2024-04-21T05:00:09.825Z,18.10
2024-04-21T05:02:37.465Z,15.23
2024-04-21T05:05:04.910Z,16.27
2024-04-21T05:07:32.618Z,16.30
2024-04-21T05:10:00.070Z,16.58
2024-04-21T05:12:27.491Z,19.33
2024-04-21T05:14:55.661Z,16.40
2024-04-21T05:17:23.415Z,15.90
2024-04-21T05:19:50.830Z,17.20
2024-04-21T05:22:18.454Z,16.27
2024-04-21T05:24:45.760Z,14.45
2024-04-21T05:27:15.024Z,13.00
2024-04-21T05:29:42.391Z,15.75
2024-04-21T05:32:09.702Z,14.60
2024-04-21T05:34:38.305Z,13.82
2024-04-21T05:37:05.540Z,15.88
2024-04-21T05:39:32.926Z,15.88
2024-04-21T05:42:00.340Z,14.45
2024-04-21T05:44:29.494Z,16.45
2024-04-21T05:46:57.539Z,16.73
2024-04-21T05:49:24.893Z,14.18
2024-04-21T05:51:53.121Z,13.13
2024-04-21T05:54:20.384Z,15.90
2024-04-21T05:56:47.904Z,14.90
2024-04-21T05:59:15.187Z,13.63
2024-04-21T06:01:42.910Z,14.50
2024-04-21T06:04:10.281Z,14.00
2024-04-21T06:06:37.859Z,15.52
2024-04-21T06:09:05.312Z,14.50
2024-04-21T06:11:32.728Z,14.20
2024-04-21T06:14:07.315Z,14.27
2024-04-21T06:16:34.842Z,19.85
2024-04-21T06:19:02.229Z,14.93
2024-04-21T06:21:29.798Z,13.82
2024-04-21T06:23:57.422Z,14.65
2024-04-21T06:26:24.869Z,13.75
2024-04-21T06:28:52.120Z,15.05
2024-04-21T06:31:19.579Z,14.90
2024-04-21T06:33:47.284Z,14.15
2024-04-21T06:36:14.619Z,16.50
2024-04-21T06:38:43.951Z,14.07
2024-04-21T06:43:40.139Z,15.32
2024-04-21T06:46:07.781Z,13.63
2024-04-21T06:48:35.134Z,13.38
2024-04-21T06:51:02.602Z,13.27
2024-04-21T06:53:34.158Z,14.50
2024-04-21T06:56:03.068Z,13.43
2024-04-21T06:58:30.550Z,14.80
2024-04-21T07:00:57.871Z,15.10
2024-04-21T07:03:25.464Z,13.60
2024-04-21T07:05:52.664Z,15.05
2024-04-21T07:08:20.116Z,16.08
2024-04-21T07:10:47.544Z,15.95
2024-04-21T07:13:15.767Z,14.70
2024-04-21T07:15:43.342Z,14.25
2024-04-21T07:18:11.038Z,15.75
2024-04-21T07:20:39.304Z,16.88
2024-04-21T07:23:06.715Z,17.38
2024-04-21T07:25:34.167Z,18.40
2024-04-21T07:28:01.881Z,18.45
2024-04-21T07:30:29.380Z,14.45
2024-04-21T07:32:56.934Z,16.88
2024-04-21T07:35:24.371Z,15.52
2024-04-21T07:37:51.794Z,13.68
2024-04-21T07:40:19.427Z,15.55
2024-04-21T07:42:49.648Z,15.95
2024-04-21T07:45:18.004Z,13.48
2024-04-21T07:47:45.382Z,12.95
2024-04-21T07:50:12.817Z,14.40
2024-04-21T07:52:40.555Z,16.80
2024-04-21T07:55:08.026Z,12.63
2024-04-21T07:57:35.382Z,12.95
2024-04-21T08:00:03.400Z,12.20
2024-04-21T08:02:39.667Z,10.90
2024-04-21T08:05:08.592Z,13.15
2024-04-21T08:07:36.400Z,13.18
2024-04-21T08:10:04.359Z,12.32
2024-04-21T08:12:32.470Z,11.30
2024-04-21T08:15:00.404Z,12.20
2024-04-21T08:17:28.344Z,10.77
2024-04-21T08:19:55.777Z,10.32
2024-04-21T08:22:23.123Z,8.18
2024-04-21T08:24:50.862Z,8.15
2024-04-21T08:27:18.159Z,9.18
2024-04-21T08:29:45.841Z,8.38
2024-04-21T08:32:13.174Z,7.53
2024-04-21T08:34:40.966Z,8.30
2024-04-21T08:37:08.516Z,7.90
2024-04-21T08:39:35.862Z,8.80
2024-04-21T08:42:56.380Z,8.27
2024-04-21T08:45:24.988Z,9.10
2024-04-21T08:47:52.831Z,10.33
2024-04-21T08:50:21.950Z,8.15
2024-04-21T08:52:50.432Z,9.05
2024-04-21T08:55:18.602Z,12.57
2024-04-21T08:57:47.249Z,11.98
2024-04-21T09:00:21.120Z,8.70
2024-04-21T09:02:48.948Z,8.05
2024-04-21T09:05:16.766Z,11.05
2024-04-21T09:07:45.367Z,10.05
2024-04-21T09:10:16.248Z,18.77
2024-04-21T09:12:44.535Z,17.23
2024-04-21T09:15:11.887Z,9.95
2024-04-21T09:17:39.782Z,8.32
2024-04-21T09:20:07.862Z,8.90
2024-04-21T09:22:35.171Z,6.70
2024-04-21T09:25:02.619Z,7.68
2024-04-21T09:27:31.171Z,7.15
2024-04-21T09:29:59.283Z,8.40
2024-04-21T09:32:27.904Z,7.47
2024-04-21T09:34:56.266Z,8.25
2024-04-21T09:37:24.115Z,9.00
2024-04-21T09:39:52.195Z,8.20
2024-04-21T09:42:20.692Z,6.38
2024-04-21T09:44:50.887Z,5.95
2024-04-21T09:47:18.698Z,5.43
2024-04-21T09:49:47.152Z,6.82
2024-04-21T09:52:17.786Z,5.60
2024-04-21T09:54:45.266Z,5.22
2024-04-21T09:57:17.432Z,4.60
2024-04-21T09:59:46.621Z,6.60
2024-04-21T10:02:26.500Z,5.43
2024-04-21T10:05:01.175Z,7.45
2024-04-21T10:07:34.656Z,6.97
2024-04-21T10:10:10.461Z,6.03
2024-04-21T10:12:39.286Z,6.55
2024-04-21T10:15:08.906Z,9.05
2024-04-21T10:17:36.784Z,5.60
2024-04-21T10:20:07.148Z,9.77
2024-04-21T10:22:35.130Z,6.78
2024-04-21T10:25:05.767Z,5.70
2024-04-21T10:27:33.244Z,8.20
2024-04-21T10:30:12.552Z,7.38
2024-04-21T10:32:40.107Z,6.43
2024-04-21T10:35:07.367Z,6.88
2024-04-21T10:37:36.194Z,6.88
2024-04-21T10:40:05.773Z,7.00
2024-04-21T10:42:35.512Z,7.55
2024-04-21T10:45:03.059Z,6.95
2024-04-21T10:47:33.785Z,7.72
2024-04-21T10:50:02.896Z,9.25
2024-04-21T10:52:33.320Z,5.72
2024-04-21T10:55:00.728Z,6.55
2024-04-21T10:57:28.711Z,8.27
2024-04-21T10:59:56.260Z,6.18
2024-04-21T11:02:23.674Z,6.22
2024-04-21T11:04:51.314Z,6.05
2024-04-21T11:07:18.613Z,7.80
2024-04-21T11:09:48.233Z,5.38
2024-04-21T11:12:18.259Z,7.38
2024-04-21T11:14:45.609Z,7.55
2024-04-21T11:17:16.501Z,8.75
2024-04-21T11:19:44.165Z,6.63
2024-04-21T11:22:12.688Z,7.32
2024-04-21T11:24:40.375Z,5.87
2024-04-21T11:27:10.083Z,6.40
2024-04-21T11:29:37.585Z,4.57
2024-04-21T11:32:05.752Z,6.38
2024-04-21T11:34:33.087Z,6.35
2024-04-21T11:37:00.674Z,6.90
2024-04-21T11:39:28.927Z,5.80
2024-04-21T11:41:56.246Z,6.95
2024-04-21T11:44:23.520Z,8.20
2024-04-21T11:46:52.802Z,13.05
2024-04-21T11:51:47.647Z,8.63
2024-04-21T11:54:15.075Z,8.40
2024-04-21T11:56:42.459Z,7.03
2024-04-21T11:59:09.902Z,7.00
2024-04-21T12:01:47.830Z,8.40
2024-04-21T12:04:17.389Z,9.32
2024-04-21T12:06:44.698Z,10.70
2024-04-21T12:09:12.040Z,9.57
2024-04-21T12:11:39.616Z,9.55
2024-04-21T12:14:16.084Z,8.00
2024-04-21T12:16:43.645Z,8.68
2024-04-21T12:19:11.530Z,9.32
2024-04-21T12:21:57.860Z,10.85
2024-04-21T12:24:25.220Z,10.45
2024-04-21T12:26:52.568Z,9.52
2024-04-21T12:29:20.193Z,13.65
2024-04-21T12:31:47.987Z,8.63
2024-04-21T12:34:15.627Z,9.38
2024-04-21T12:36:43.467Z,7.88
2024-04-21T12:39:11.163Z,11.32
2024-04-21T12:41:38.732Z,98.93
2024-04-21T12:44:06.116Z,8.77
2024-04-21T12:46:33.693Z,40.33
2024-04-21T12:49:01.960Z,35.38
2024-04-21T12:51:29.570Z,12.68
2024-04-21T12:53:57.448Z,10.80
2024-04-21T12:56:24.725Z,14.02
2024-04-21T12:58:52.192Z,8.25
2024-04-21T13:01:19.627Z,8.23
2024-04-21T13:03:47.142Z,8.88
2024-04-21T13:06:14.350Z,8.52
2024-04-21T13:08:42.154Z,12.80
2024-04-21T13:11:09.500Z,11.65
2024-04-21T13:13:36.929Z,9.20
2024-04-21T13:16:04.454Z,8.82
2024-04-21T13:18:32.059Z,13.07
2024-04-21T13:21:00.083Z,11.77
2024-04-21T13:23:27.446Z,9.35
2024-04-21T13:25:54.918Z,9.73
2024-04-21T13:28:22.536Z,11.52
2024-04-21T13:30:51.666Z,11.00
2024-04-21T13:33:20.273Z,12.23
2024-04-21T13:35:47.628Z,11.02
2024-04-21T13:38:16.869Z,7.90
2024-04-21T13:40:44.388Z,11.13
2024-04-21T13:43:11.671Z,8.93
2024-04-21T13:45:38.982Z,10.27
2024-04-21T13:48:06.856Z,7.72
2024-04-21T13:50:34.110Z,10.05
2024-04-21T13:53:01.455Z,10.25
2024-04-21T13:55:28.989Z,10.05
2024-04-21T13:57:56.396Z,10.15
2024-04-21T14:00:24.987Z,10.00
2024-04-21T14:02:52.389Z,12.27
2024-04-21T14:05:19.715Z,13.02
2024-04-21T14:07:47.101Z,11.57
2024-04-21T14:10:14.506Z,14.25
2024-04-21T14:12:42.131Z,16.65
2024-04-21T14:15:09.577Z,18.45
2024-04-21T14:17:37.517Z,17.70
2024-04-21T14:20:05.297Z,17.88
2024-04-21T14:22:32.729Z,17.20
2024-04-21T14:25:00.201Z,14.10
2024-04-21T14:27:27.678Z,15.07
2024-04-21T14:29:57.330Z,17.40
2024-04-21T14:32:27.126Z,17.67
2024-04-21T14:34:54.879Z,12.65
2024-04-21T14:37:22.503Z,12.55
2024-04-21T14:39:49.801Z,13.65
2024-04-21T14:42:18.469Z,13.00
2024-04-21T14:44:52.084Z,13.57
2024-04-21T14:47:20.507Z,17.60
2024-04-21T14:49:47.922Z,16.58
2024-04-21T14:52:15.970Z,17.10
2024-04-21T14:54:43.255Z,15.00
2024-04-21T14:57:10.636Z,14.88
2024-04-21T14:59:38.058Z,19.05
2024-04-21T15:02:05.462Z,16.77
2024-04-21T15:04:36.927Z,16.45
2024-04-21T15:07:05.673Z,19.50
2024-04-21T15:09:32.872Z,17.13
2024-04-21T15:12:00.197Z,15.70
2024-04-21T15:14:27.393Z,16.90
2024-04-21T15:16:54.713Z,19.02
2024-04-21T15:19:22.049Z,21.33
2024-04-21T15:21:49.385Z,19.95
2024-04-21T15:24:16.647Z,21.25
2024-04-21T15:26:43.865Z,20.38
2024-04-21T15:29:11.414Z,19.73
2024-04-21T15:31:42.305Z,17.55
2024-04-21T15:34:09.809Z,17.23
2024-04-21T15:36:37.014Z,20.85
2024-04-21T15:39:04.422Z,24.85
2024-04-21T15:41:33.507Z,25.42
2024-04-21T15:44:01.510Z,21.40
2024-04-21T15:46:29.600Z,21.30
2024-04-21T15:48:57.275Z,17.52
2024-04-21T15:51:25.680Z,14.23
2024-04-21T15:53:52.959Z,15.18
2024-04-21T15:56:20.294Z,16.50
2024-04-21T15:58:47.560Z,15.93
2024-04-21T16:01:15.197Z,17.08
2024-04-21T16:03:42.488Z,23.45
2024-04-21T16:06:09.803Z,14.73
2024-04-21T16:08:37.000Z,13.13
2024-04-21T16:11:05.298Z,12.48
2024-04-21T16:13:32.650Z,7.35
2024-04-21T16:16:00.036Z,10.00
2024-04-21T16:18:28.952Z,9.60
2024-04-21T16:20:56.506Z,10.35
2024-04-21T16:23:24.360Z,9.43
2024-04-21T16:25:51.658Z,6.70
2024-04-21T16:28:19.380Z,4.72
2024-04-21T16:30:46.622Z,6.40
2024-04-21T16:33:16.577Z,7.43
2024-04-21T16:35:44.369Z,6.25
2024-04-21T16:38:15.109Z,7.88
2024-04-21T16:40:42.999Z,11.25
2024-04-21T16:43:10.773Z,8.07
2024-04-21T16:45:38.562Z,12.88
2024-04-21T16:48:07.318Z,7.68
2024-04-21T16:50:35.853Z,4.55
2024-04-21T16:53:03.350Z,7.63
2024-04-21T16:55:31.491Z,5.68
2024-04-21T16:58:01.951Z,6.00
2024-04-21T17:00:29.733Z,5.30
2024-04-21T17:02:57.390Z,3.97
2024-04-21T17:05:25.403Z,5.13
2024-04-21T17:08:09.262Z,5.43
2024-04-21T17:10:37.334Z,5.00
2024-04-21T17:13:04.821Z,5.93
2024-04-21T17:15:32.843Z,8.90
2024-04-21T17:18:00.234Z,8.25
2024-04-21T17:20:27.754Z,8.05
2024-04-21T17:22:55.095Z,6.57
2024-04-21T17:25:22.867Z,7.40
2024-04-21T17:27:50.124Z,6.40
2024-04-21T17:30:20.762Z,7.03
2024-04-21T17:32:48.217Z,8.85
2024-04-21T17:35:17.168Z,8.73
2024-04-21T17:37:47.218Z,8.13
2024-04-21T17:40:14.885Z,8.80
2024-04-21T17:42:42.171Z,7.45
2024-04-21T17:45:09.772Z,5.57
2024-04-21T17:47:37.273Z,5.38
2024-04-21T17:50:05.508Z,3.33
2024-04-21T17:52:34.509Z,2.50
2024-04-21T17:55:05.006Z,3.83
2024-04-21T17:57:34.257Z,2.53
2024-04-21T18:00:01.904Z,5.75
2024-04-21T18:02:34.320Z,4.38
2024-04-21T18:05:02.484Z,4.22
2024-04-21T18:10:03.632Z,4.47
2024-04-21T18:12:32.600Z,3.75
2024-04-21T18:15:00.063Z,4.03
2024-04-21T18:17:28.389Z,6.32
2024-04-21T18:19:56.002Z,3.85
2024-04-21T18:22:23.851Z,5.95
2024-04-21T18:24:51.348Z,6.00
2024-04-21T18:27:19.228Z,6.50
2024-04-21T18:29:46.775Z,7.00
2024-04-21T18:32:14.197Z,7.50
2024-04-21T18:34:41.702Z,5.05
2024-04-21T18:37:09.206Z,7.28
2024-04-21T18:39:36.768Z,5.82
2024-04-21T18:42:04.401Z,6.43
2024-04-21T18:44:32.729Z,6.25
2024-04-21T18:47:00.764Z,7.18
2024-04-21T18:49:28.310Z,6.15
2024-04-21T18:51:55.722Z,8.00
2024-04-21T18:54:23.024Z,8.23
2024-04-21T18:56:50.289Z,4.75
2024-04-21T18:59:17.522Z,4.10
2024-04-21T19:01:45.070Z,2.63
2024-04-21T19:04:12.455Z,4.47
2024-04-21T19:06:39.729Z,3.60
2024-04-21T19:09:07.569Z,3.97
2024-04-21T19:11:37.292Z,13.40
2024-04-21T19:14:05.110Z,20.50
2024-04-21T19:16:32.652Z,24.10
2024-04-21T19:19:00.441Z,17.35
2024-04-21T19:21:28.112Z,10.70
2024-04-21T19:23:56.307Z,16.52
2024-04-21T19:26:23.726Z,9.93
2024-04-21T19:28:52.605Z,5.75
2024-04-21T19:31:20.188Z,6.72
2024-04-21T19:33:48.654Z,5.50
2024-04-21T19:36:16.322Z,5.40
2024-04-21T19:38:43.721Z,3.92
2024-04-21T19:41:11.018Z,5.25
2024-04-21T19:43:38.585Z,7.05
2024-04-21T19:46:06.474Z,3.25
2024-04-21T19:48:33.987Z,5.47
2024-04-21T19:51:01.919Z,4.43
2024-04-21T19:53:29.754Z,4.65
2024-04-21T19:55:57.425Z,8.02
2024-04-21T19:58:25.134Z,6.32
2024-04-21T20:01:01.185Z,6.03
2024-04-21T20:03:29.527Z,5.95
2024-04-21T20:05:56.922Z,4.75
2024-04-21T20:08:24.559Z,5.50
2024-04-21T20:10:52.092Z,5.00
2024-04-21T20:13:21.999Z,3.13
2024-04-21T20:16:15.320Z,3.85
2024-04-21T20:18:45.026Z,3.88
2024-04-21T20:21:12.688Z,3.38
2024-04-21T20:23:40.005Z,2.92
2024-04-21T20:26:22.280Z,2.17
2024-04-21T20:28:49.609Z,4.38
2024-04-21T20:31:21.777Z,4.60
2024-04-21T20:33:49.694Z,2.35
2024-04-21T20:36:21.169Z,3.28
2024-04-21T20:38:49.784Z,4.25
2024-04-21T20:41:22.218Z,5.10
2024-04-21T20:43:50.556Z,4.45
2024-04-21T20:46:21.878Z,5.30
2024-04-21T20:48:50.112Z,5.18
2024-04-21T20:51:18.156Z,4.38
2024-04-21T20:53:45.532Z,4.45
2024-04-21T20:56:13.378Z,4.32
2024-04-21T20:58:49.902Z,4.82
2024-04-21T21:01:20.648Z,5.53
2024-04-21T21:03:50.163Z,6.65
2024-04-21T21:06:20.286Z,6.13
2024-04-21T21:08:51.646Z,5.53
2024-04-21T21:11:19.478Z,6.55
2024-04-21T21:13:47.020Z,6.32
2024-04-21T21:16:14.315Z,7.45
2024-04-21T21:18:45.048Z,6.90
2024-04-21T21:21:12.531Z,7.10
2024-04-21T21:23:39.789Z,5.93
2024-04-21T21:26:07.031Z,6.93
2024-04-21T21:28:34.561Z,7.10
2024-04-21T21:31:04.268Z,5.50
2024-04-21T21:33:31.792Z,5.80
2024-04-21T21:36:00.642Z,5.35
2024-04-21T21:40:57.777Z,4.55
2024-04-21T21:43:25.704Z,5.75
2024-04-21T21:45:53.491Z,5.90
2024-04-21T21:48:20.815Z,5.38
2024-04-21T21:50:48.280Z,6.45
2024-04-21T21:53:15.552Z,5.93
2024-04-21T21:55:42.942Z,6.07
2024-04-21T21:58:10.506Z,6.60
2024-04-21T22:00:38.384Z,5.32
2024-04-21T22:03:06.107Z,6.10
2024-04-21T22:05:34.328Z,6.57
2024-04-21T22:08:01.543Z,5.15
2024-04-21T22:10:29.324Z,6.47
2024-04-21T22:12:56.750Z,6.13
2024-04-21T22:15:24.074Z,4.72
2024-04-21T22:17:51.628Z,4.65
2024-04-21T22:20:20.349Z,6.20
2024-04-21T22:22:49.717Z,5.85
2024-04-21T22:25:19.564Z,8.15
2024-04-21T22:27:46.950Z,9.00
2024-04-21T22:30:14.231Z,6.40
2024-04-21T22:32:42.693Z,4.90
2024-04-21T22:35:10.178Z,7.22
2024-04-21T22:37:37.804Z,7.20
2024-04-21T22:40:05.973Z,7.68
2024-04-21T22:42:33.558Z,7.50
2024-04-21T22:45:00.729Z,7.65
2024-04-21T22:47:30.263Z,6.75
2024-04-21T22:49:58.235Z,6.00
2024-04-21T22:52:26.075Z,6.88
2024-04-21T22:54:53.482Z,7.95
2024-04-21T22:57:21.151Z,6.63
2024-04-21T22:59:48.916Z,11.55
2024-04-21T23:02:16.421Z,9.95
2024-04-21T23:04:43.819Z,7.18
2024-04-21T23:07:11.309Z,8.32
2024-04-21T23:09:38.564Z,6.70
2024-04-21T23:12:08.228Z,6.70
2024-04-21T23:14:36.341Z,3.75
2024-04-21T23:17:03.738Z,6.35
2024-04-21T23:19:31.117Z,3.17
2024-04-21T23:21:58.409Z,4.97
2024-04-21T23:24:25.861Z,3.05
2024-04-21T23:26:53.318Z,3.08
2024-04-21T23:29:20.785Z,5.18
2024-04-21T23:31:48.055Z,2.92
2024-04-21T23:34:15.684Z,2.50
2024-04-21T23:36:42.959Z,3.53
2024-04-21T23:39:10.510Z,3.47
2024-04-21T23:41:38.120Z,2.38
2024-04-21T23:44:05.909Z,3.63
2024-04-21T23:46:33.326Z,2.50
2024-04-21T23:49:00.599Z,3.35
2024-04-21T23:51:28.066Z,3.55
2024-04-21T23:53:55.278Z,3.25
2024-04-21T23:56:22.681Z,3.97
2024-04-21T23:58:49.961Z,3.38
